sensor_id;sensor_type;location;lat;lon;timestamp;P1;durP1;ratioP1;P2;durP2;ratioP2
12884;SDS011;6510;51.362;7.370;2023-08-30T00:00:45;0.00;;;0.00;;
12884;SDS011;6510;51.362;7.370;2023-08-30T00:03:11;0.00;;;0.00;;
12884;SDS011;6510;51.362;7.370;2023-08-30T00:05:40;0.00;;;0.00;;
12884;SDS011;6510;51.362;7.370;2023-08-30T00:08:07;0.00;;;0.00;;
12884;SDS011;6510;51.362;7.370;2023-08-30T00:10:36;0.00;;;0.00;;
12884;SDS011;6510;51.362;7.370;2023-08-30T00:13:03;0.00;;;0.00;;
12884;SDS011;6510;51.362;7.370;2023-08-30T00:15:29;0.00;;;0.00;;
12884;SDS011;6510;51.362;7.370;2023-08-30T00:17:54;0.10;;;0.10;;
12884;SDS011;6510;51.362;7.370;2023-08-30T00:20:20;0.00;;;0.00;;
12884;SDS011;6510;51.362;7.370;2023-08-30T00:22:46;0.00;;;0.00;;
12884;SDS011;6510;51.362;7.370;2023-08-30T00:25:13;0.10;;;0.10;;
12884;SDS011;6510;51.362;7.370;2023-08-30T00:27:39;0.00;;;0.00;;
12884;SDS011;6510;51.362;7.370;2023-08-30T00:30:05;0.00;;;0.00;;
12884;SDS011;6510;51.362;7.370;2023-08-30T00:32:33;0.00;;;0.00;;
12884;SDS011;6510;51.362;7.370;2023-08-30T00:34:58;0.03;;;0.03;;
12884;SDS011;6510;51.362;7.370;2023-08-30T00:37:24;0.10;;;0.10;;
12884;SDS011;6510;51.362;7.370;2023-08-30T00:39:49;0.10;;;0.10;;
12884;SDS011;6510;51.362;7.370;2023-08-30T00:42:15;0.10;;;0.10;;
12884;SDS011;6510;51.362;7.370;2023-08-30T00:44:41;0.00;;;0.00;;
12884;SDS011;6510;51.362;7.370;2023-08-30T00:47:06;0.00;;;0.00;;
12884;SDS011;6510;51.362;7.370;2023-08-30T00:49:32;0.07;;;0.07;;
12884;SDS011;6510;51.362;7.370;2023-08-30T00:52:00;0.00;;;0.00;;
12884;SDS011;6510;51.362;7.370;2023-08-30T00:54:32;0.10;;;0.10;;
12884;SDS011;6510;51.362;7.370;2023-08-30T00:56:58;0.00;;;0.00;;
12884;SDS011;6510;51.362;7.370;2023-08-30T00:59:26;0.00;;;0.00;;
12884;SDS011;6510;51.362;7.370;2023-08-30T01:01:52;0.00;;;0.00;;
12884;SDS011;6510;51.362;7.370;2023-08-30T01:04:20;0.10;;;0.10;;
12884;SDS011;6510;51.362;7.370;2023-08-30T01:06:45;0.00;;;0.00;;
12884;SDS011;6510;51.362;7.370;2023-08-30T01:09:14;0.00;;;0.00;;
12884;SDS011;6510;51.362;7.370;2023-08-30T01:14:25;0.00;;;0.00;;
12884;SDS011;6510;51.362;7.370;2023-08-30T01:16:59;0.00;;;0.00;;
12884;SDS011;6510;51.362;7.370;2023-08-30T01:22:13;0.10;;;0.10;;
12884;SDS011;6510;51.362;7.370;2023-08-30T01:25:09;0.00;;;0.00;;
12884;SDS011;6510;51.362;7.370;2023-08-30T01:27:33;0.10;;;0.10;;
12884;SDS011;6510;51.362;7.370;2023-08-30T01:30:01;0.00;;;0.00;;
12884;SDS011;6510;51.362;7.370;2023-08-30T01:32:29;0.00;;;0.00;;
12884;SDS011;6510;51.362;7.370;2023-08-30T01:34:56;0.00;;;0.00;;
12884;SDS011;6510;51.362;7.370;2023-08-30T01:37:22;0.00;;;0.00;;
12884;SDS011;6510;51.362;7.370;2023-08-30T01:39:49;0.00;;;0.00;;
12884;SDS011;6510;51.362;7.370;2023-08-30T01:42:16;0.00;;;0.00;;
12884;SDS011;6510;51.362;7.370;2023-08-30T01:44:47;0.00;;;0.00;;
12884;SDS011;6510;51.362;7.370;2023-08-30T01:47:13;0.10;;;0.10;;
12884;SDS011;6510;51.362;7.370;2023-08-30T01:49:41;0.00;;;0.00;;
12884;SDS011;6510;51.362;7.370;2023-08-30T01:52:08;0.00;;;0.00;;
12884;SDS011;6510;51.362;7.370;2023-08-30T01:54:35;0.00;;;0.00;;
12884;SDS011;6510;51.362;7.370;2023-08-30T01:57:02;0.00;;;0.00;;
12884;SDS011;6510;51.362;7.370;2023-08-30T01:59:29;0.00;;;0.00;;
12884;SDS011;6510;51.362;7.370;2023-08-30T02:01:54;0.00;;;0.00;;
12884;SDS011;6510;51.362;7.370;2023-08-30T02:04:20;0.00;;;0.00;;
12884;SDS011;6510;51.362;7.370;2023-08-30T02:06:48;0.00;;;0.00;;
12884;SDS011;6510;51.362;7.370;2023-08-30T02:09:26;0.10;;;0.10;;
12884;SDS011;6510;51.362;7.370;2023-08-30T02:11:59;0.00;;;0.00;;
12884;SDS011;6510;51.362;7.370;2023-08-30T02:14:28;0.00;;;0.00;;
12884;SDS011;6510;51.362;7.370;2023-08-30T02:16:55;0.10;;;0.10;;
12884;SDS011;6510;51.362;7.370;2023-08-30T02:19:21;0.00;;;0.00;;
12884;SDS011;6510;51.362;7.370;2023-08-30T02:21:47;0.00;;;0.00;;
12884;SDS011;6510;51.362;7.370;2023-08-30T02:24:13;0.00;;;0.00;;
12884;SDS011;6510;51.362;7.370;2023-08-30T02:26:39;0.00;;;0.00;;
12884;SDS011;6510;51.362;7.370;2023-08-30T02:29:05;0.00;;;0.00;;
12884;SDS011;6510;51.362;7.370;2023-08-30T02:31:30;0.00;;;0.00;;
12884;SDS011;6510;51.362;7.370;2023-08-30T02:33:56;0.00;;;0.00;;
12884;SDS011;6510;51.362;7.370;2023-08-30T02:36:21;0.10;;;0.10;;
12884;SDS011;6510;51.362;7.370;2023-08-30T02:38:47;0.00;;;0.00;;
12884;SDS011;6510;51.362;7.370;2023-08-30T02:41:13;0.10;;;0.10;;
12884;SDS011;6510;51.362;7.370;2023-08-30T02:43:38;0.10;;;0.10;;
12884;SDS011;6510;51.362;7.370;2023-08-30T02:46:04;0.00;;;0.00;;
12884;SDS011;6510;51.362;7.370;2023-08-30T02:48:30;0.00;;;0.00;;
12884;SDS011;6510;51.362;7.370;2023-08-30T02:50:59;0.00;;;0.00;;
12884;SDS011;6510;51.362;7.370;2023-08-30T02:53:24;0.00;;;0.00;;
12884;SDS011;6510;51.362;7.370;2023-08-30T02:55:50;0.10;;;0.10;;
12884;SDS011;6510;51.362;7.370;2023-08-30T02:58:16;0.00;;;0.00;;
12884;SDS011;6510;51.362;7.370;2023-08-30T03:00:41;0.07;;;0.07;;
12884;SDS011;6510;51.362;7.370;2023-08-30T03:03:07;0.00;;;0.00;;
12884;SDS011;6510;51.362;7.370;2023-08-30T03:05:33;0.00;;;0.00;;
12884;SDS011;6510;51.362;7.370;2023-08-30T03:07:58;0.00;;;0.00;;
12884;SDS011;6510;51.362;7.370;2023-08-30T03:10:24;0.03;;;0.03;;
12884;SDS011;6510;51.362;7.370;2023-08-30T03:12:49;0.10;;;0.10;;
12884;SDS011;6510;51.362;7.370;2023-08-30T03:15:16;0.00;;;0.00;;
12884;SDS011;6510;51.362;7.370;2023-08-30T03:17:41;0.00;;;0.00;;
12884;SDS011;6510;51.362;7.370;2023-08-30T03:20:07;0.00;;;0.00;;
12884;SDS011;6510;51.362;7.370;2023-08-30T03:22:33;0.00;;;0.00;;
12884;SDS011;6510;51.362;7.370;2023-08-30T03:24:58;0.00;;;0.00;;
12884;SDS011;6510;51.362;7.370;2023-08-30T03:27:25;0.00;;;0.00;;
12884;SDS011;6510;51.362;7.370;2023-08-30T03:29:51;0.00;;;0.00;;
12884;SDS011;6510;51.362;7.370;2023-08-30T03:32:17;0.00;;;0.00;;
12884;SDS011;6510;51.362;7.370;2023-08-30T03:34:49;0.00;;;0.00;;
12884;SDS011;6510;51.362;7.370;2023-08-30T03:37:15;0.00;;;0.00;;
12884;SDS011;6510;51.362;7.370;2023-08-30T03:39:41;0.00;;;0.00;;
12884;SDS011;6510;51.362;7.370;2023-08-30T03:42:07;0.00;;;0.00;;
12884;SDS011;6510;51.362;7.370;2023-08-30T03:44:33;0.00;;;0.00;;
12884;SDS011;6510;51.362;7.370;2023-08-30T03:46:59;0.00;;;0.00;;
12884;SDS011;6510;51.362;7.370;2023-08-30T03:49:24;0.00;;;0.00;;
12884;SDS011;6510;51.362;7.370;2023-08-30T03:51:50;0.00;;;0.00;;
12884;SDS011;6510;51.362;7.370;2023-08-30T03:54:16;0.00;;;0.00;;
12884;SDS011;6510;51.362;7.370;2023-08-30T03:56:42;0.00;;;0.00;;
12884;SDS011;6510;51.362;7.370;2023-08-30T03:59:09;0.00;;;0.00;;
12884;SDS011;6510;51.362;7.370;2023-08-30T04:01:34;0.00;;;0.00;;
12884;SDS011;6510;51.362;7.370;2023-08-30T04:04:00;0.00;;;0.00;;
12884;SDS011;6510;51.362;7.370;2023-08-30T04:06:25;0.00;;;0.00;;
12884;SDS011;6510;51.362;7.370;2023-08-30T04:08:51;0.00;;;0.00;;
12884;SDS011;6510;51.362;7.370;2023-08-30T04:11:16;0.00;;;0.00;;
12884;SDS011;6510;51.362;7.370;2023-08-30T04:13:42;0.10;;;0.10;;
12884;SDS011;6510;51.362;7.370;2023-08-30T04:16:08;0.00;;;0.00;;
12884;SDS011;6510;51.362;7.370;2023-08-30T04:18:33;0.00;;;0.00;;
12884;SDS011;6510;51.362;7.370;2023-08-30T04:20:59;0.00;;;0.00;;
12884;SDS011;6510;51.362;7.370;2023-08-30T04:23:27;0.00;;;0.00;;
12884;SDS011;6510;51.362;7.370;2023-08-30T04:25:53;0.00;;;0.00;;
12884;SDS011;6510;51.362;7.370;2023-08-30T04:28:19;0.00;;;0.00;;
12884;SDS011;6510;51.362;7.370;2023-08-30T04:30:45;0.00;;;0.00;;
12884;SDS011;6510;51.362;7.370;2023-08-30T04:33:10;0.00;;;0.00;;
12884;SDS011;6510;51.362;7.370;2023-08-30T04:35:36;0.00;;;0.00;;
12884;SDS011;6510;51.362;7.370;2023-08-30T04:38:01;0.00;;;0.00;;
12884;SDS011;6510;51.362;7.370;2023-08-30T04:40:28;0.00;;;0.00;;
12884;SDS011;6510;51.362;7.370;2023-08-30T04:42:55;0.00;;;0.00;;
12884;SDS011;6510;51.362;7.370;2023-08-30T04:45:21;0.00;;;0.00;;
12884;SDS011;6510;51.362;7.370;2023-08-30T04:47:47;0.00;;;0.00;;
12884;SDS011;6510;51.362;7.370;2023-08-30T04:50:13;0.00;;;0.00;;
12884;SDS011;6510;51.362;7.370;2023-08-30T04:52:38;0.00;;;0.00;;
12884;SDS011;6510;51.362;7.370;2023-08-30T04:55:04;0.00;;;0.00;;
12884;SDS011;6510;51.362;7.370;2023-08-30T04:57:30;0.00;;;0.00;;
12884;SDS011;6510;51.362;7.370;2023-08-30T04:59:56;0.00;;;0.00;;
12884;SDS011;6510;51.362;7.370;2023-08-30T05:02:22;0.00;;;0.00;;
12884;SDS011;6510;51.362;7.370;2023-08-30T05:04:48;0.00;;;0.00;;
12884;SDS011;6510;51.362;7.370;2023-08-30T05:07:13;0.00;;;0.00;;
12884;SDS011;6510;51.362;7.370;2023-08-30T05:09:39;0.00;;;0.00;;
12884;SDS011;6510;51.362;7.370;2023-08-30T05:12:05;0.00;;;0.00;;
12884;SDS011;6510;51.362;7.370;2023-08-30T05:14:32;0.00;;;0.00;;
12884;SDS011;6510;51.362;7.370;2023-08-30T05:16:57;0.00;;;0.00;;
12884;SDS011;6510;51.362;7.370;2023-08-30T05:19:23;0.00;;;0.00;;
12884;SDS011;6510;51.362;7.370;2023-08-30T05:21:48;0.00;;;0.00;;
12884;SDS011;6510;51.362;7.370;2023-08-30T05:24:19;0.00;;;0.00;;
12884;SDS011;6510;51.362;7.370;2023-08-30T05:26:45;0.00;;;0.00;;
12884;SDS011;6510;51.362;7.370;2023-08-30T05:29:12;0.00;;;0.00;;
12884;SDS011;6510;51.362;7.370;2023-08-30T05:31:38;0.00;;;0.00;;
12884;SDS011;6510;51.362;7.370;2023-08-30T05:34:04;0.00;;;0.00;;
12884;SDS011;6510;51.362;7.370;2023-08-30T05:36:30;0.00;;;0.00;;
12884;SDS011;6510;51.362;7.370;2023-08-30T05:38:55;0.00;;;0.00;;
12884;SDS011;6510;51.362;7.370;2023-08-30T05:41:21;0.00;;;0.00;;
12884;SDS011;6510;51.362;7.370;2023-08-30T05:43:46;0.00;;;0.00;;
12884;SDS011;6510;51.362;7.370;2023-08-30T05:46:12;0.00;;;0.00;;
12884;SDS011;6510;51.362;7.370;2023-08-30T05:48:40;0.00;;;0.00;;
12884;SDS011;6510;51.362;7.370;2023-08-30T05:51:06;0.00;;;0.00;;
12884;SDS011;6510;51.362;7.370;2023-08-30T05:53:31;0.00;;;0.00;;
12884;SDS011;6510;51.362;7.370;2023-08-30T05:55:57;0.00;;;0.00;;
12884;SDS011;6510;51.362;7.370;2023-08-30T05:58:22;0.00;;;0.00;;
12884;SDS011;6510;51.362;7.370;2023-08-30T06:00:48;0.00;;;0.00;;
12884;SDS011;6510;51.362;7.370;2023-08-30T06:03:13;0.00;;;0.00;;
12884;SDS011;6510;51.362;7.370;2023-08-30T06:05:39;0.00;;;0.00;;
12884;SDS011;6510;51.362;7.370;2023-08-30T06:08:05;0.00;;;0.00;;
12884;SDS011;6510;51.362;7.370;2023-08-30T06:10:31;0.00;;;0.00;;
12884;SDS011;6510;51.362;7.370;2023-08-30T06:12:56;0.03;;;0.03;;
12884;SDS011;6510;51.362;7.370;2023-08-30T06:15:22;0.00;;;0.00;;
12884;SDS011;6510;51.362;7.370;2023-08-30T06:17:47;0.00;;;0.00;;
12884;SDS011;6510;51.362;7.370;2023-08-30T06:20:14;0.07;;;0.07;;
12884;SDS011;6510;51.362;7.370;2023-08-30T06:22:40;0.00;;;0.00;;
12884;SDS011;6510;51.362;7.370;2023-08-30T06:25:07;0.00;;;0.00;;
12884;SDS011;6510;51.362;7.370;2023-08-30T06:27:40;0.07;;;0.07;;
12884;SDS011;6510;51.362;7.370;2023-08-30T06:30:08;0.10;;;0.10;;
12884;SDS011;6510;51.362;7.370;2023-08-30T06:32:34;0.00;;;0.00;;
12884;SDS011;6510;51.362;7.370;2023-08-30T06:35:00;0.03;;;0.03;;
12884;SDS011;6510;51.362;7.370;2023-08-30T06:37:26;0.10;;;0.10;;
12884;SDS011;6510;51.362;7.370;2023-08-30T06:39:51;0.00;;;0.00;;
12884;SDS011;6510;51.362;7.370;2023-08-30T06:42:17;0.00;;;0.00;;
12884;SDS011;6510;51.362;7.370;2023-08-30T06:44:43;0.00;;;0.00;;
12884;SDS011;6510;51.362;7.370;2023-08-30T06:47:08;0.10;;;0.10;;
12884;SDS011;6510;51.362;7.370;2023-08-30T06:49:34;0.10;;;0.10;;
12884;SDS011;6510;51.362;7.370;2023-08-30T06:51:59;0.10;;;0.10;;
12884;SDS011;6510;51.362;7.370;2023-08-30T06:54:28;0.07;;;0.07;;
12884;SDS011;6510;51.362;7.370;2023-08-30T06:56:58;0.10;;;0.10;;
12884;SDS011;6510;51.362;7.370;2023-08-30T06:59:25;0.10;;;0.10;;
12884;SDS011;6510;51.362;7.370;2023-08-30T07:01:51;0.00;;;0.00;;
12884;SDS011;6510;51.362;7.370;2023-08-30T07:04:17;0.10;;;0.10;;
12884;SDS011;6510;51.362;7.370;2023-08-30T07:06:43;0.00;;;0.00;;
12884;SDS011;6510;51.362;7.370;2023-08-30T07:09:09;0.10;;;0.10;;
12884;SDS011;6510;51.362;7.370;2023-08-30T07:11:36;0.10;;;0.10;;
12884;SDS011;6510;51.362;7.370;2023-08-30T07:14:02;0.00;;;0.00;;
12884;SDS011;6510;51.362;7.370;2023-08-30T07:16:28;0.10;;;0.10;;
12884;SDS011;6510;51.362;7.370;2023-08-30T07:18:54;0.10;;;0.10;;
12884;SDS011;6510;51.362;7.370;2023-08-30T07:21:20;0.10;;;0.10;;
12884;SDS011;6510;51.362;7.370;2023-08-30T07:23:45;0.10;;;0.10;;
12884;SDS011;6510;51.362;7.370;2023-08-30T07:26:11;0.10;;;0.10;;
12884;SDS011;6510;51.362;7.370;2023-08-30T07:28:36;0.00;;;0.00;;
12884;SDS011;6510;51.362;7.370;2023-08-30T07:31:03;0.10;;;0.10;;
12884;SDS011;6510;51.362;7.370;2023-08-30T07:33:29;0.10;;;0.10;;
12884;SDS011;6510;51.362;7.370;2023-08-30T07:35:54;0.20;;;0.20;;
12884;SDS011;6510;51.362;7.370;2023-08-30T07:38:20;0.20;;;0.20;;
12884;SDS011;6510;51.362;7.370;2023-08-30T07:40:45;0.17;;;0.17;;
12884;SDS011;6510;51.362;7.370;2023-08-30T07:43:11;0.10;;;0.10;;
12884;SDS011;6510;51.362;7.370;2023-08-30T07:45:37;0.20;;;0.20;;
12884;SDS011;6510;51.362;7.370;2023-08-30T07:48:02;0.10;;;0.10;;
12884;SDS011;6510;51.362;7.370;2023-08-30T07:50:28;0.10;;;0.10;;
12884;SDS011;6510;51.362;7.370;2023-08-30T07:52:54;0.10;;;0.10;;
12884;SDS011;6510;51.362;7.370;2023-08-30T07:55:19;0.10;;;0.10;;
12884;SDS011;6510;51.362;7.370;2023-08-30T07:57:45;0.20;;;0.20;;
12884;SDS011;6510;51.362;7.370;2023-08-30T08:00:11;0.13;;;0.13;;
12884;SDS011;6510;51.362;7.370;2023-08-30T08:02:37;0.10;;;0.10;;
12884;SDS011;6510;51.362;7.370;2023-08-30T08:05:04;0.10;;;0.10;;
12884;SDS011;6510;51.362;7.370;2023-08-30T08:07:29;0.10;;;0.10;;
12884;SDS011;6510;51.362;7.370;2023-08-30T08:09:56;0.20;;;0.20;;
12884;SDS011;6510;51.362;7.370;2023-08-30T08:12:22;0.15;;;0.15;;
12884;SDS011;6510;51.362;7.370;2023-08-30T08:14:47;0.20;;;0.20;;
12884;SDS011;6510;51.362;7.370;2023-08-30T08:17:13;0.20;;;0.20;;
12884;SDS011;6510;51.362;7.370;2023-08-30T08:19:38;0.20;;;0.20;;
12884;SDS011;6510;51.362;7.370;2023-08-30T08:22:05;0.15;;;0.15;;
12884;SDS011;6510;51.362;7.370;2023-08-30T08:24:31;0.20;;;0.20;;
12884;SDS011;6510;51.362;7.370;2023-08-30T08:26:57;0.13;;;0.13;;
12884;SDS011;6510;51.362;7.370;2023-08-30T08:29:22;0.20;;;0.20;;
12884;SDS011;6510;51.362;7.370;2023-08-30T08:31:48;0.13;;;0.13;;
12884;SDS011;6510;51.362;7.370;2023-08-30T08:34:13;0.20;;;0.20;;
12884;SDS011;6510;51.362;7.370;2023-08-30T08:36:40;0.20;;;0.20;;
12884;SDS011;6510;51.362;7.370;2023-08-30T08:39:07;0.10;;;0.10;;
12884;SDS011;6510;51.362;7.370;2023-08-30T08:41:43;0.20;;;0.20;;
12884;SDS011;6510;51.362;7.370;2023-08-30T08:44:10;0.10;;;0.10;;
12884;SDS011;6510;51.362;7.370;2023-08-30T08:46:37;0.10;;;0.10;;
12884;SDS011;6510;51.362;7.370;2023-08-30T08:51:38;0.20;;;0.20;;
12884;SDS011;6510;51.362;7.370;2023-08-30T08:54:04;0.20;;;0.20;;
12884;SDS011;6510;51.362;7.370;2023-08-30T08:56:31;0.20;;;0.20;;
12884;SDS011;6510;51.362;7.370;2023-08-30T08:58:57;0.20;;;0.20;;
12884;SDS011;6510;51.362;7.370;2023-08-30T09:01:24;0.20;;;0.20;;
12884;SDS011;6510;51.362;7.370;2023-08-30T09:03:50;0.20;;;0.20;;
12884;SDS011;6510;51.362;7.370;2023-08-30T09:06:16;0.20;;;0.20;;
12884;SDS011;6510;51.362;7.370;2023-08-30T09:08:43;0.20;;;0.20;;
12884;SDS011;6510;51.362;7.370;2023-08-30T09:11:08;0.20;;;0.20;;
12884;SDS011;6510;51.362;7.370;2023-08-30T09:13:34;0.17;;;0.17;;
12884;SDS011;6510;51.362;7.370;2023-08-30T09:16:00;0.20;;;0.20;;
12884;SDS011;6510;51.362;7.370;2023-08-30T09:18:27;0.20;;;0.20;;
12884;SDS011;6510;51.362;7.370;2023-08-30T09:21:04;0.20;;;0.20;;
12884;SDS011;6510;51.362;7.370;2023-08-30T09:23:34;0.20;;;0.20;;
12884;SDS011;6510;51.362;7.370;2023-08-30T09:26:00;0.20;;;0.20;;
12884;SDS011;6510;51.362;7.370;2023-08-30T09:28:27;0.20;;;0.20;;
12884;SDS011;6510;51.362;7.370;2023-08-30T09:30:53;0.20;;;0.20;;
12884;SDS011;6510;51.362;7.370;2023-08-30T09:33:37;0.20;;;0.20;;
12884;SDS011;6510;51.362;7.370;2023-08-30T09:36:09;0.10;;;0.10;;
12884;SDS011;6510;51.362;7.370;2023-08-30T09:38:36;0.10;;;0.10;;
12884;SDS011;6510;51.362;7.370;2023-08-30T09:41:05;0.15;;;0.15;;
12884;SDS011;6510;51.362;7.370;2023-08-30T09:43:32;0.20;;;0.20;;
12884;SDS011;6510;51.362;7.370;2023-08-30T09:46:02;0.10;;;0.10;;
12884;SDS011;6510;51.362;7.370;2023-08-30T09:48:30;0.10;;;0.10;;
12884;SDS011;6510;51.362;7.370;2023-08-30T09:50:57;0.10;;;0.10;;
12884;SDS011;6510;51.362;7.370;2023-08-30T09:53:25;0.13;;;0.13;;
12884;SDS011;6510;51.362;7.370;2023-08-30T09:55:53;0.10;;;0.10;;
12884;SDS011;6510;51.362;7.370;2023-08-30T09:58:19;0.10;;;0.10;;
12884;SDS011;6510;51.362;7.370;2023-08-30T10:00:46;0.10;;;0.10;;
12884;SDS011;6510;51.362;7.370;2023-08-30T10:03:13;0.10;;;0.10;;
12884;SDS011;6510;51.362;7.370;2023-08-30T10:05:40;0.13;;;0.13;;
12884;SDS011;6510;51.362;7.370;2023-08-30T10:08:07;0.10;;;0.10;;
12884;SDS011;6510;51.362;7.370;2023-08-30T10:10:34;0.20;;;0.20;;
12884;SDS011;6510;51.362;7.370;2023-08-30T10:13:01;0.03;;;0.03;;
12884;SDS011;6510;51.362;7.370;2023-08-30T10:15:27;0.17;;;0.17;;
12884;SDS011;6510;51.362;7.370;2023-08-30T10:17:56;0.10;;;0.10;;
12884;SDS011;6510;51.362;7.370;2023-08-30T10:20:23;0.20;;;0.20;;
12884;SDS011;6510;51.362;7.370;2023-08-30T10:22:50;0.10;;;0.10;;
12884;SDS011;6510;51.362;7.370;2023-08-30T10:25:21;0.10;;;0.10;;
12884;SDS011;6510;51.362;7.370;2023-08-30T10:27:54;0.10;;;0.10;;
12884;SDS011;6510;51.362;7.370;2023-08-30T10:30:21;0.13;;;0.13;;
12884;SDS011;6510;51.362;7.370;2023-08-30T10:32:48;0.10;;;0.10;;
12884;SDS011;6510;51.362;7.370;2023-08-30T10:35:14;0.10;;;0.10;;
12884;SDS011;6510;51.362;7.370;2023-08-30T10:37:41;0.10;;;0.10;;
12884;SDS011;6510;51.362;7.370;2023-08-30T10:40:08;0.10;;;0.10;;
12884;SDS011;6510;51.362;7.370;2023-08-30T10:42:34;0.10;;;0.10;;
12884;SDS011;6510;51.362;7.370;2023-08-30T10:45:06;0.00;;;0.00;;
12884;SDS011;6510;51.362;7.370;2023-08-30T10:47:36;0.10;;;0.10;;
12884;SDS011;6510;51.362;7.370;2023-08-30T10:50:12;0.10;;;0.10;;
12884;SDS011;6510;51.362;7.370;2023-08-30T10:52:38;0.10;;;0.10;;
12884;SDS011;6510;51.362;7.370;2023-08-30T10:55:07;0.10;;;0.10;;
12884;SDS011;6510;51.362;7.370;2023-08-30T10:57:41;0.10;;;0.10;;
12884;SDS011;6510;51.362;7.370;2023-08-30T11:00:09;0.10;;;0.10;;
12884;SDS011;6510;51.362;7.370;2023-08-30T11:02:43;0.00;;;0.00;;
12884;SDS011;6510;51.362;7.370;2023-08-30T11:05:13;0.10;;;0.10;;
12884;SDS011;6510;51.362;7.370;2023-08-30T11:07:40;0.00;;;0.00;;
12884;SDS011;6510;51.362;7.370;2023-08-30T11:10:05;0.10;;;0.10;;
12884;SDS011;6510;51.362;7.370;2023-08-30T11:12:34;0.00;;;0.00;;
12884;SDS011;6510;51.362;7.370;2023-08-30T11:15:00;0.00;;;0.00;;
12884;SDS011;6510;51.362;7.370;2023-08-30T11:17:27;0.10;;;0.10;;
12884;SDS011;6510;51.362;7.370;2023-08-30T11:20:26;0.10;;;0.10;;
12884;SDS011;6510;51.362;7.370;2023-08-30T11:22:46;0.00;;;0.00;;
12884;SDS011;6510;51.362;7.370;2023-08-30T11:25:13;0.00;;;0.00;;
12884;SDS011;6510;51.362;7.370;2023-08-30T11:27:40;0.00;;;0.00;;
12884;SDS011;6510;51.362;7.370;2023-08-30T11:30:06;0.00;;;0.00;;
12884;SDS011;6510;51.362;7.370;2023-08-30T11:32:37;0.00;;;0.00;;
12884;SDS011;6510;51.362;7.370;2023-08-30T11:35:04;0.00;;;0.00;;
12884;SDS011;6510;51.362;7.370;2023-08-30T11:37:31;0.00;;;0.00;;
12884;SDS011;6510;51.362;7.370;2023-08-30T11:39:57;0.10;;;0.10;;
12884;SDS011;6510;51.362;7.370;2023-08-30T11:42:23;0.10;;;0.10;;
12884;SDS011;6510;51.362;7.370;2023-08-30T11:44:50;0.10;;;0.10;;
12884;SDS011;6510;51.362;7.370;2023-08-30T11:47:22;0.10;;;0.10;;
12884;SDS011;6510;51.362;7.370;2023-08-30T11:49:49;0.00;;;0.00;;
12884;SDS011;6510;51.362;7.370;2023-08-30T11:52:18;0.10;;;0.10;;
12884;SDS011;6510;51.362;7.370;2023-08-30T11:54:46;0.10;;;0.10;;
12884;SDS011;6510;51.362;7.370;2023-08-30T11:57:15;0.00;;;0.00;;
12884;SDS011;6510;51.362;7.370;2023-08-30T11:59:41;0.10;;;0.10;;
12884;SDS011;6510;51.362;7.370;2023-08-30T12:02:07;0.10;;;0.10;;
12884;SDS011;6510;51.362;7.370;2023-08-30T12:04:33;0.10;;;0.10;;
12884;SDS011;6510;51.362;7.370;2023-08-30T12:07:09;0.00;;;0.00;;
12884;SDS011;6510;51.362;7.370;2023-08-30T12:09:35;0.10;;;0.10;;
12884;SDS011;6510;51.362;7.370;2023-08-30T12:12:19;0.00;;;0.00;;
12884;SDS011;6510;51.362;7.370;2023-08-30T12:14:54;0.10;;;0.10;;
12884;SDS011;6510;51.362;7.370;2023-08-30T12:17:23;0.00;;;0.00;;
12884;SDS011;6510;51.362;7.370;2023-08-30T12:19:56;0.00;;;0.00;;
12884;SDS011;6510;51.362;7.370;2023-08-30T12:22:22;0.00;;;0.00;;
12884;SDS011;6510;51.362;7.370;2023-08-30T12:24:48;0.00;;;0.00;;
12884;SDS011;6510;51.362;7.370;2023-08-30T12:27:13;0.00;;;0.00;;
12884;SDS011;6510;51.362;7.370;2023-08-30T12:29:39;0.10;;;0.10;;
12884;SDS011;6510;51.362;7.370;2023-08-30T12:32:06;0.10;;;0.10;;
12884;SDS011;6510;51.362;7.370;2023-08-30T12:34:32;0.10;;;0.10;;
12884;SDS011;6510;51.362;7.370;2023-08-30T12:36:58;0.00;;;0.00;;
12884;SDS011;6510;51.362;7.370;2023-08-30T12:39:24;0.00;;;0.00;;
12884;SDS011;6510;51.362;7.370;2023-08-30T12:41:49;0.10;;;0.10;;
12884;SDS011;6510;51.362;7.370;2023-08-30T12:44:15;0.00;;;0.00;;
12884;SDS011;6510;51.362;7.370;2023-08-30T12:46:40;0.00;;;0.00;;
12884;SDS011;6510;51.362;7.370;2023-08-30T12:49:06;0.10;;;0.10;;
12884;SDS011;6510;51.362;7.370;2023-08-30T12:51:32;0.00;;;0.00;;
12884;SDS011;6510;51.362;7.370;2023-08-30T12:53:58;0.10;;;0.10;;
12884;SDS011;6510;51.362;7.370;2023-08-30T12:56:23;0.00;;;0.00;;
12884;SDS011;6510;51.362;7.370;2023-08-30T12:58:49;0.00;;;0.00;;
12884;SDS011;6510;51.362;7.370;2023-08-30T13:01:16;0.10;;;0.10;;
12884;SDS011;6510;51.362;7.370;2023-08-30T13:03:42;0.00;;;0.00;;
12884;SDS011;6510;51.362;7.370;2023-08-30T13:06:07;0.10;;;0.10;;
12884;SDS011;6510;51.362;7.370;2023-08-30T13:08:33;0.00;;;0.00;;
12884;SDS011;6510;51.362;7.370;2023-08-30T13:10:59;0.00;;;0.00;;
12884;SDS011;6510;51.362;7.370;2023-08-30T13:13:25;0.10;;;0.10;;
12884;SDS011;6510;51.362;7.370;2023-08-30T13:15:51;0.00;;;0.00;;
12884;SDS011;6510;51.362;7.370;2023-08-30T13:18:16;0.03;;;0.03;;
12884;SDS011;6510;51.362;7.370;2023-08-30T13:20:42;0.10;;;0.10;;
12884;SDS011;6510;51.362;7.370;2023-08-30T13:23:08;0.00;;;0.00;;
12884;SDS011;6510;51.362;7.370;2023-08-30T13:25:37;0.00;;;0.00;;
12884;SDS011;6510;51.362;7.370;2023-08-30T13:28:06;0.10;;;0.10;;
12884;SDS011;6510;51.362;7.370;2023-08-30T13:30:32;0.10;;;0.10;;
12884;SDS011;6510;51.362;7.370;2023-08-30T13:32:58;0.07;;;0.07;;
12884;SDS011;6510;51.362;7.370;2023-08-30T13:35:24;0.10;;;0.10;;
12884;SDS011;6510;51.362;7.370;2023-08-30T13:37:49;0.00;;;0.00;;
12884;SDS011;6510;51.362;7.370;2023-08-30T13:40:15;0.00;;;0.00;;
12884;SDS011;6510;51.362;7.370;2023-08-30T13:42:41;0.00;;;0.00;;
12884;SDS011;6510;51.362;7.370;2023-08-30T13:45:07;0.00;;;0.00;;
12884;SDS011;6510;51.362;7.370;2023-08-30T13:47:34;0.00;;;0.00;;
12884;SDS011;6510;51.362;7.370;2023-08-30T13:50:00;0.00;;;0.00;;
12884;SDS011;6510;51.362;7.370;2023-08-30T13:52:26;0.10;;;0.10;;
12884;SDS011;6510;51.362;7.370;2023-08-30T13:54:52;0.10;;;0.10;;
12884;SDS011;6510;51.362;7.370;2023-08-30T13:57:18;0.00;;;0.00;;
12884;SDS011;6510;51.362;7.370;2023-08-30T13:59:43;0.10;;;0.10;;
12884;SDS011;6510;51.362;7.370;2023-08-30T14:02:09;0.10;;;0.10;;
12884;SDS011;6510;51.362;7.370;2023-08-30T14:04:34;0.10;;;0.10;;
12884;SDS011;6510;51.362;7.370;2023-08-30T14:07:02;0.10;;;0.10;;
12884;SDS011;6510;51.362;7.370;2023-08-30T14:09:28;0.00;;;0.00;;
12884;SDS011;6510;51.362;7.370;2023-08-30T14:11:54;0.03;;;0.03;;
12884;SDS011;6510;51.362;7.370;2023-08-30T14:14:20;0.07;;;0.07;;
12884;SDS011;6510;51.362;7.370;2023-08-30T14:16:46;0.10;;;0.10;;
12884;SDS011;6510;51.362;7.370;2023-08-30T14:19:12;0.10;;;0.10;;
12884;SDS011;6510;51.362;7.370;2023-08-30T14:21:37;0.00;;;0.00;;
12884;SDS011;6510;51.362;7.370;2023-08-30T14:24:03;0.00;;;0.00;;
12884;SDS011;6510;51.362;7.370;2023-08-30T14:26:29;0.00;;;0.00;;
12884;SDS011;6510;51.362;7.370;2023-08-30T14:28:55;0.10;;;0.10;;
12884;SDS011;6510;51.362;7.370;2023-08-30T14:31:20;0.00;;;0.00;;
12884;SDS011;6510;51.362;7.370;2023-08-30T14:33:46;0.00;;;0.00;;
12884;SDS011;6510;51.362;7.370;2023-08-30T14:36:12;0.10;;;0.10;;
12884;SDS011;6510;51.362;7.370;2023-08-30T14:38:38;0.10;;;0.10;;
12884;SDS011;6510;51.362;7.370;2023-08-30T14:41:04;0.10;;;0.10;;
12884;SDS011;6510;51.362;7.370;2023-08-30T14:43:29;0.10;;;0.10;;
12884;SDS011;6510;51.362;7.370;2023-08-30T14:45:59;0.00;;;0.00;;
12884;SDS011;6510;51.362;7.370;2023-08-30T14:48:25;0.00;;;0.00;;
12884;SDS011;6510;51.362;7.370;2023-08-30T14:50:51;0.10;;;0.10;;
12884;SDS011;6510;51.362;7.370;2023-08-30T14:53:17;0.00;;;0.00;;
12884;SDS011;6510;51.362;7.370;2023-08-30T14:55:45;0.10;;;0.10;;
12884;SDS011;6510;51.362;7.370;2023-08-30T14:58:12;0.00;;;0.00;;
12884;SDS011;6510;51.362;7.370;2023-08-30T15:00:38;0.10;;;0.10;;
12884;SDS011;6510;51.362;7.370;2023-08-30T15:03:03;0.00;;;0.00;;
12884;SDS011;6510;51.362;7.370;2023-08-30T15:05:29;0.00;;;0.00;;